Time;durP1;ratioP1;P1;durP2;ratioP2;P2;SDS_P1;SDS_P2;PMS_P1;PMS_P2;Temp;Humidity;BMP_temperature;BMP_pressure;BME280_temperature;BME280_humidity;BME280_pressure;Samples;Min_cycle;Max_cycle;Signal;HPM_P1;HPM_P2
2023/03/06 00:00:57;;;;;;;20.73;10.23;;;4.60;99.90;;;;;;6278351;22;20180;-84
2023/03/06 00:03:26;;;;;;;18.33;10.88;;;4.60;99.90;;;;;;6277499;22;20155;-84
2023/03/06 00:05:54;;;;;;;19.73;10.82;;;4.60;99.90;;;;;;6280649;22;20198;-84
2023/03/06 00:08:20;;;;;;;20.75;11.70;;;4.60;99.90;;;;;;6254029;22;20168;-84
2023/03/06 00:10:45;;;;;;;20.93;12.10;;;4.60;99.90;;;;;;6251604;22;20542;-84
2023/03/06 00:13:13;;;;;;;19.20;12.63;;;4.60;99.90;;;;;;6252777;22;20156;-82
2023/03/06 00:15:39;;;;;;;22.90;14.77;;;4.60;99.90;;;;;;6253839;22;20557;-82
2023/03/06 00:18:05;;;;;;;20.00;11.97;;;4.50;99.90;;;;;;6281954;22;20199;-84
2023/03/06 00:20:32;;;;;;;20.63;12.70;;;4.50;99.90;;;;;;6281629;22;20395;-84
2023/03/06 00:22:57;;;;;;;23.83;12.75;;;4.60;99.90;;;;;;6280376;22;20543;-84
2023/03/06 00:25:24;;;;;;;18.63;13.20;;;4.50;99.90;;;;;;6257629;22;20156;-84
2023/03/06 00:27:50;;;;;;;18.00;12.77;;;4.50;99.90;;;;;;6296739;22;20285;-82
2023/03/06 00:30:22;;;;;;;23.73;12.68;;;4.50;99.90;;;;;;6295430;22;20263;-83
2023/03/06 00:32:48;;;;;;;22.98;14.18;;;4.40;99.90;;;;;;6293149;22;20160;-83
2023/03/06 00:35:14;;;;;;;28.45;14.57;;;4.40;99.90;;;;;;6281761;22;20174;-84
2023/03/06 00:37:40;;;;;;;21.55;13.80;;;4.40;99.90;;;;;;6282292;22;20537;-84
2023/03/06 00:40:07;;;;;;;18.90;12.07;;;4.40;99.90;;;;;;6279617;22;20224;-84
2023/03/06 00:42:32;;;;;;;21.00;13.25;;;4.40;99.90;;;;;;6279306;22;20877;-83
2023/03/06 00:44:58;;;;;;;23.00;14.87;;;4.40;99.90;;;;;;6280696;22;20144;-84
2023/03/06 00:47:24;;;;;;;21.00;13.23;;;4.30;99.90;;;;;;6278774;22;20588;-85
2023/03/06 00:49:49;;;;;;;29.87;14.20;;;4.30;99.90;;;;;;6258589;22;20215;-83
2023/03/06 00:52:15;;;;;;;22.17;14.37;;;4.30;99.90;;;;;;6293797;22;20156;-83
2023/03/06 00:54:40;;;;;;;22.27;14.27;;;4.20;99.90;;;;;;6294516;22;20156;-82
2023/03/06 00:57:06;;;;;;;24.53;13.83;;;4.20;99.90;;;;;;6293124;22;20226;-83
2023/03/06 00:59:32;;;;;;;21.90;15.10;;;4.20;99.90;;;;;;6291128;22;20144;-84
2023/03/06 01:02:00;;;;;;;25.13;14.60;;;4.20;99.90;;;;;;6281659;22;20144;-83
2023/03/06 01:04:26;;;;;;;27.60;15.07;;;4.20;99.90;;;;;;6281499;22;20211;-84
2023/03/06 01:06:51;;;;;;;26.20;15.17;;;4.20;99.90;;;;;;6282263;22;20152;-84
2023/03/06 01:09:17;;;;;;;22.80;15.10;;;4.20;99.90;;;;;;6281169;22;20148;-84
2023/03/06 01:11:42;;;;;;;24.30;15.03;;;4.20;99.90;;;;;;6280136;22;20203;-86
2023/03/06 01:14:08;;;;;;;28.80;15.67;;;4.20;99.90;;;;;;6281048;22;20148;-84
2023/03/06 01:16:36;;;;;;;23.57;14.63;;;4.20;99.90;;;;;;6282304;22;20149;-84
2023/03/06 01:19:01;;;;;;;21.73;14.43;;;4.20;99.90;;;;;;6279586;22;20152;-83
2023/03/06 01:21:27;;;;;;;20.73;14.17;;;4.20;99.90;;;;;;6280980;22;20581;-87
2023/03/06 01:23:52;;;;;;;22.53;13.80;;;4.20;99.90;;;;;;6280867;22;20199;-83
2023/03/06 01:26:18;;;;;;;24.67;14.87;;;4.20;99.90;;;;;;6281530;22;20159;-85
2023/03/06 01:28:44;;;;;;;21.00;13.80;;;4.20;99.90;;;;;;6255098;22;20156;-85
2023/03/06 01:31:10;;;;;;;22.17;13.70;;;4.20;99.90;;;;;;6283448;22;20195;-84
2023/03/06 01:33:36;;;;;;;19.88;14.00;;;4.20;99.90;;;;;;6258637;22;20225;-84
2023/03/06 01:36:07;;;;;;;22.45;15.25;;;4.20;99.90;;;;;;6261700;22;20164;-86
2023/03/06 01:38:34;;;;;;;21.25;14.57;;;4.20;99.90;;;;;;6263282;22;20214;-88
2023/03/06 01:41:02;;;;;;;24.10;13.95;;;4.30;99.90;;;;;;6287468;22;20172;-83
2023/03/06 01:43:34;;;;;;;23.85;14.85;;;4.30;99.90;;;;;;6284729;22;20589;-85
2023/03/06 01:46:27;;;;;;;22.58;14.43;;;4.30;99.90;;;;;;6281611;22;20133;-84
2023/03/06 01:49:22;;;;;;;19.63;13.15;;;4.30;99.90;;;;;;6282240;22;20147;-85
2023/03/06 01:51:51;;;;;;;23.23;14.85;;;4.30;99.90;;;;;;6254379;22;20152;-84
2023/03/06 01:54:23;;;;;;;24.48;15.40;;;4.30;99.90;;;;;;6282274;22;20159;-86
2023/03/06 01:56:52;;;;;;;22.88;14.48;;;4.30;99.90;;;;;;6256049;22;20156;-85
2023/03/06 01:59:19;;;;;;;27.95;16.77;;;4.30;99.90;;;;;;6280237;22;20170;-87
2023/03/06 02:01:46;;;;;;;29.48;15.48;;;4.40;99.90;;;;;;6281803;22;20172;-84
2023/03/06 02:04:12;;;;;;;23.58;14.88;;;4.40;99.90;;;;;;6282555;22;20178;-86
2023/03/06 02:06:41;;;;;;;23.75;14.25;;;4.40;99.90;;;;;;6254014;22;20188;-84
2023/03/06 02:09:07;;;;;;;23.58;15.05;;;4.40;99.90;;;;;;6250161;22;20220;-82
2023/03/06 02:11:33;;;;;;;25.47;15.30;;;4.40;99.90;;;;;;6280184;22;20176;-83
2023/03/06 02:13:58;;;;;;;26.37;16.77;;;4.40;99.90;;;;;;6251496;22;20385;-87
2023/03/06 02:16:27;;;;;;;27.60;16.80;;;4.40;99.90;;;;;;6253260;22;20163;-85
2023/03/06 02:18:53;;;;;;;24.50;15.90;;;4.40;99.90;;;;;;6279123;22;20225;-84
2023/03/06 02:21:30;;;;;;;26.93;17.00;;;4.40;99.90;;;;;;6250595;22;20168;-85
2023/03/06 02:24:06;;;;;;;26.98;16.38;;;4.40;99.90;;;;;;6280109;22;20421;-85
2023/03/06 02:26:33;;;;;;;31.90;18.08;;;4.50;99.90;;;;;;6253531;22;20155;-83
2023/03/06 02:28:58;;;;;;;25.95;15.73;;;4.50;99.90;;;;;;6281142;22;20164;-85
2023/03/06 02:31:28;;;;;;;28.97;15.83;;;4.50;99.90;;;;;;6280781;22;20175;-85
2023/03/06 02:34:12;;;;;;;25.33;16.80;;;4.50;99.90;;;;;;6281014;22;20155;-84
2023/03/06 02:36:44;;;;;;;28.15;17.85;;;4.50;99.90;;;;;;6251626;22;20186;-84
2023/03/06 02:39:11;;;;;;;32.63;19.10;;;4.50;99.90;;;;;;6279772;22;20187;-84
2023/03/06 02:41:36;;;;;;;34.50;20.45;;;4.50;99.90;;;;;;6253050;22;20561;-85
2023/03/06 02:44:02;;;;;;;34.17;19.37;;;4.50;99.90;;;;;;6281009;22;20149;-85
2023/03/06 02:46:27;;;;;;;33.13;18.73;;;4.50;99.90;;;;;;6281363;22;20227;-85
2023/03/06 02:48:53;;;;;;;31.83;18.13;;;4.50;99.90;;;;;;6282034;22;20152;-84
2023/03/06 02:51:19;;;;;;;27.60;18.87;;;4.50;99.90;;;;;;6280018;22;20228;-83
2023/03/06 02:53:47;;;;;;;33.20;18.47;;;4.50;99.90;;;;;;6282133;22;20159;-85
2023/03/06 02:56:14;;;;;;;31.80;18.67;;;4.50;99.90;;;;;;6282099;22;20163;-85
2023/03/06 02:58:40;;;;;;;32.70;19.48;;;4.60;99.90;;;;;;6280051;22;20180;-84
2023/03/06 03:01:06;;;;;;;37.33;19.40;;;4.60;99.90;;;;;;6280424;22;20256;-84
2023/03/06 03:03:32;;;;;;;32.95;19.30;;;4.60;99.90;;;;;;6252857;22;20149;-85
2023/03/06 03:05:59;;;;;;;31.20;19.10;;;4.60;99.90;;;;;;6253778;22;20159;-86
2023/03/06 03:08:24;;;;;;;35.33;20.75;;;4.60;99.90;;;;;;6278749;22;20149;-88
2023/03/06 03:10:50;;;;;;;36.63;19.80;;;4.60;99.90;;;;;;6250082;22;20267;-84
2023/03/06 03:13:16;;;;;;;35.27;21.57;;;4.60;99.90;;;;;;6278933;22;20144;-84
2023/03/06 03:15:41;;;;;;;34.27;19.63;;;4.60;99.90;;;;;;6277744;22;20157;-86
2023/03/06 03:18:07;;;;;;;35.77;21.73;;;4.60;99.90;;;;;;6279240;22;20622;-84
2023/03/06 03:20:32;;;;;;;37.57;21.27;;;4.60;99.90;;;;;;6278279;22;20175;-84
2023/03/06 03:22:58;;;;;;;42.17;21.80;;;4.60;99.90;;;;;;6252299;22;20192;-84
2023/03/06 03:25:24;;;;;;;40.70;22.67;;;4.60;99.90;;;;;;6280344;22;20156;-85
2023/03/06 03:27:50;;;;;;;47.40;21.85;;;4.60;99.90;;;;;;6250430;22;20191;-84
2023/03/06 03:30:17;;;;;;;42.03;24.40;;;4.60;99.90;;;;;;6277889;22;20176;-86
2023/03/06 03:32:45;;;;;;;45.33;23.70;;;4.60;99.90;;;;;;6278804;22;20153;-84
2023/03/06 03:35:11;;;;;;;37.30;22.05;;;4.60;99.90;;;;;;6278092;22;20160;-85
2023/03/06 03:37:36;;;;;;;39.77;22.93;;;4.60;99.90;;;;;;6253996;22;20187;-85
2023/03/06 03:40:04;;;;;;;36.10;19.90;;;4.60;99.90;;;;;;6280443;22;20391;-84
2023/03/06 03:42:30;;;;;;;43.78;21.65;;;4.60;99.90;;;;;;6285003;22;20382;-84
2023/03/06 03:44:55;;;;;;;38.43;21.10;;;4.60;99.90;;;;;;6280755;22;20148;-87
2023/03/06 03:47:21;;;;;;;39.50;22.90;;;4.70;99.90;;;;;;6280253;22;20155;-85
2023/03/06 03:49:46;;;;;;;35.73;21.07;;;4.70;99.90;;;;;;6280526;22;20556;-84
2023/03/06 03:52:12;;;;;;;39.83;22.47;;;4.70;99.90;;;;;;6280727;22;20159;-84
2023/03/06 03:54:37;;;;;;;39.50;22.10;;;4.70;99.90;;;;;;6281170;22;20149;-85
2023/03/06 03:57:03;;;;;;;40.70;23.73;;;4.70;99.90;;;;;;6280575;22;20168;-84
2023/03/06 03:59:28;;;;;;;38.50;22.37;;;4.60;99.90;;;;;;6280600;22;20180;-85
2023/03/06 04:01:54;;;;;;;37.30;22.13;;;4.60;99.90;;;;;;6279636;22;20184;-85
2023/03/06 04:04:21;;;;;;;39.73;21.90;;;4.60;99.90;;;;;;6279749;22;20152;-85
2023/03/06 04:06:46;;;;;;;37.90;22.50;;;4.60;99.90;;;;;;6281342;22;20379;-87
2023/03/06 04:09:12;;;;;;;44.67;24.03;;;4.60;99.90;;;;;;6280317;22;20159;-85
2023/03/06 04:11:38;;;;;;;35.45;22.10;;;4.60;99.90;;;;;;6255020;22;20176;-84
2023/03/06 04:14:03;;;;;;;40.50;22.40;;;4.60;99.90;;;;;;6281396;22;20580;-85
2023/03/06 04:16:29;;;;;;;39.77;21.50;;;4.60;99.90;;;;;;6280167;22;20165;-84
2023/03/06 04:18:54;;;;;;;46.73;24.30;;;4.60;99.90;;;;;;6279497;22;20473;-84
2023/03/06 04:21:20;;;;;;;43.80;23.60;;;4.60;99.90;;;;;;6280950;22;20550;-84
2023/03/06 04:23:45;;;;;;;43.83;23.97;;;4.60;99.90;;;;;;6280535;22;20144;-84
2023/03/06 04:26:11;;;;;;;45.63;24.63;;;4.60;99.90;;;;;;6280303;22;20483;-83
2023/03/06 04:28:37;;;;;;;48.17;24.77;;;4.60;99.90;;;;;;6280768;22;20155;-84
2023/03/06 04:31:02;;;;;;;43.90;23.97;;;4.60;99.90;;;;;;6280440;22;20238;-84
2023/03/06 04:33:30;;;;;;;38.53;22.60;;;4.60;99.90;;;;;;6280973;22;20156;-85
2023/03/06 04:35:56;;;;;;;39.90;22.58;;;4.60;99.90;;;;;;6279626;22;20208;-84
2023/03/06 04:38:21;;;;;;;41.80;23.33;;;4.60;99.90;;;;;;6253107;22;20234;-83
2023/03/06 04:40:48;;;;;;;45.20;22.40;;;4.60;99.90;;;;;;6251895;22;20172;-84
2023/03/06 04:43:14;;;;;;;43.78;23.25;;;4.60;99.90;;;;;;6281750;22;20159;-84
2023/03/06 04:45:39;;;;;;;39.53;22.40;;;4.60;99.90;;;;;;6280209;22;20180;-84
2023/03/06 04:48:05;;;;;;;42.57;22.70;;;4.60;99.90;;;;;;6280418;22;20606;-85
2023/03/06 04:50:31;;;;;;;41.17;23.67;;;4.60;99.90;;;;;;6252953;22;20705;-84
2023/03/06 04:52:59;;;;;;;36.50;22.07;;;4.60;99.90;;;;;;6252904;22;20720;-86
2023/03/06 04:55:25;;;;;;;37.05;21.58;;;4.60;99.90;;;;;;6281341;22;20405;-84
2023/03/06 04:57:50;;;;;;;38.90;21.45;;;4.60;99.90;;;;;;6253250;22;20184;-84
2023/03/06 05:00:20;;;;;;;41.13;21.73;;;4.60;97.10;;;;;;6253313;22;20179;-84
2023/03/06 05:02:46;;;;;;;29.85;18.05;;;4.60;46.40;;;;;;6279422;22;20253;-85
2023/03/06 05:05:13;;;;;;;32.05;16.80;;;4.60;1.00;;;;;;6280356;22;20148;-85
2023/03/06 05:07:40;;;;;;;36.53;17.65;;;4.50;1.00;;;;;;6290611;22;20148;-87
2023/03/06 05:10:06;;;;;;;33.58;18.33;;;4.50;1.00;;;;;;6264927;22;20194;-83
2023/03/06 05:12:35;;;;;;;30.05;17.38;;;4.50;1.00;;;;;;6285960;22;20546;-83
2023/03/06 05:15:02;;;;;;;32.50;17.23;;;4.50;1.00;;;;;;6277973;22;20224;-83
2023/03/06 05:17:27;;;;;;;29.98;17.80;;;4.50;1.00;;;;;;6277870;22;20187;-82
2023/03/06 05:19:53;;;;;;;31.77;18.40;;;4.50;1.00;;;;;;6278129;22;20173;-82
2023/03/06 05:22:18;;;;;;;32.20;19.60;;;4.50;1.00;;;;;;6279493;22;20140;-84
2023/03/06 05:24:44;;;;;;;35.53;19.27;;;4.50;1.00;;;;;;6277908;22;20144;-83
2023/03/06 05:27:09;;;;;;;40.40;20.63;;;4.50;1.00;;;;;;6257871;22;20183;-86
2023/03/06 05:29:35;;;;;;;32.40;18.53;;;4.50;1.00;;;;;;6293208;22;20156;-84
2023/03/06 05:32:00;;;;;;;33.67;20.90;;;4.50;1.00;;;;;;6292980;22;20171;-83
2023/03/06 05:34:26;;;;;;;36.57;20.67;;;4.50;1.00;;;;;;6292959;22;20178;-85
2023/03/06 05:36:51;;;;;;;36.37;19.87;;;4.50;1.00;;;;;;6284674;22;20160;-84
2023/03/06 05:39:17;;;;;;;37.50;19.47;;;4.50;1.00;;;;;;6280447;22;20148;-84
2023/03/06 05:41:42;;;;;;;39.97;20.70;;;4.50;1.00;;;;;;6253803;22;20230;-84
2023/03/06 05:44:08;;;;;;;34.27;19.50;;;4.50;1.00;;;;;;6251732;22;20512;-85
2023/03/06 05:46:33;;;;;;;31.43;18.10;;;4.50;1.00;;;;;;6276916;22;20148;-85
2023/03/06 05:48:59;;;;;;;34.37;18.80;;;4.50;1.00;;;;;;6278888;22;20160;-84
2023/03/06 05:51:25;;;;;;;33.43;18.10;;;4.50;1.00;;;;;;6279493;22;20172;-85
2023/03/06 05:53:50;;;;;;;33.95;18.10;;;4.50;1.00;;;;;;6279852;22;20217;-84
2023/03/06 05:56:16;;;;;;;38.03;19.00;;;4.50;1.00;;;;;;6279564;22;20153;-86
2023/03/06 05:58:42;;;;;;;35.97;19.33;;;4.50;1.00;;;;;;6278904;22;20259;-84
2023/03/06 06:01:13;;;;;;;36.03;19.57;;;4.50;1.00;;;;;;6279609;22;20221;-84
2023/03/06 06:03:39;;;;;;;42.83;20.83;;;4.50;1.00;;;;;;6278301;22;20179;-87
2023/03/06 06:06:06;;;;;;;34.30;19.80;;;4.50;1.00;;;;;;6280419;22;20153;-85
2023/03/06 06:08:31;;;;;;;37.72;20.65;;;4.50;1.00;;;;;;6252206;22;20412;-84
2023/03/06 06:10:57;;;;;;;38.73;20.27;;;4.40;1.00;;;;;;6279827;22;20201;-85
2023/03/06 06:13:22;;;;;;;42.87;22.43;;;4.40;1.00;;;;;;6252379;22;20166;-85
2023/03/06 06:15:48;;;;;;;39.13;20.87;;;4.40;1.00;;;;;;6279847;22;20213;-85
2023/03/06 06:18:14;;;;;;;42.05;22.17;;;4.40;1.00;;;;;;6279466;22;20267;-84
2023/03/06 06:20:40;;;;;;;37.63;20.27;;;4.40;1.00;;;;;;6278282;22;20172;-84
2023/03/06 06:23:05;;;;;;;39.23;21.37;;;4.50;1.00;;;;;;6279909;22;20223;-85
2023/03/06 06:25:31;;;;;;;40.27;22.10;;;4.50;1.00;;;;;;6278443;22;20471;-85
2023/03/06 06:27:57;;;;;;;37.58;21.02;;;4.50;1.00;;;;;;6279992;22;20152;-84
2023/03/06 06:30:23;;;;;;;38.97;22.00;;;4.50;1.00;;;;;;6278984;22;20175;-84
2023/03/06 06:32:48;;;;;;;36.47;20.38;;;4.50;1.00;;;;;;6279389;22;20198;-84
2023/03/06 06:35:14;;;;;;;39.50;21.70;;;4.50;1.00;;;;;;6280034;22;20156;-83
2023/03/06 06:37:40;;;;;;;45.10;23.87;;;4.50;1.00;;;;;;6278239;22;20192;-84
2023/03/06 06:40:06;;;;;;;54.10;27.73;;;4.50;1.00;;;;;;6278470;22;20478;-86
2023/03/06 06:42:32;;;;;;;56.90;28.25;;;4.50;1.00;;;;;;6276715;22;20671;-84
2023/03/06 06:44:58;;;;;;;51.53;28.77;;;4.50;1.00;;;;;;6278977;22;20144;-84
2023/03/06 06:47:23;;;;;;;50.13;27.77;;;4.60;1.00;;;;;;6279737;22;20225;-85
2023/03/06 06:49:54;;;;;;;50.53;25.70;;;4.60;1.00;;;;;;6279600;22;20760;-84
2023/03/06 06:52:19;;;;;;;48.10;26.75;;;4.60;1.00;;;;;;6278720;22;20206;-85
2023/03/06 06:54:45;;;;;;;49.20;25.90;;;4.60;1.00;;;;;;6277830;22;20160;-84
2023/03/06 06:57:11;;;;;;;54.83;28.13;;;4.60;99.90;;;;;;6276960;22;20176;-85
2023/03/06 06:59:37;;;;;;;52.43;26.10;;;4.60;99.90;;;;;;6276201;22;20612;-84
2023/03/06 07:02:02;;;;;;;44.73;27.30;;;4.60;99.90;;;;;;6276092;22;20368;-84
2023/03/06 07:04:28;;;;;;;46.87;25.07;;;4.80;99.90;;;;;;6276969;22;20486;-84
2023/03/06 07:07:05;;;;;;;49.03;25.50;;;4.90;99.90;;;;;;6249178;22;20159;-83
2023/03/06 07:09:33;;;;;;;47.67;23.45;;;5.00;35.90;;;;;;6279682;22;20212;-83
2023/03/06 07:12:01;;;;;;;42.25;24.50;;;5.00;1.00;;;;;;6279122;22;20148;-84
2023/03/06 07:14:29;;;;;;;48.05;26.23;;;5.10;99.90;;;;;;6276613;22;20194;-85
2023/03/06 07:16:54;;;;;;;49.50;24.85;;;5.00;99.90;;;;;;6278672;22;20145;-84
2023/03/06 07:19:20;;;;;;;45.27;25.13;;;5.00;99.90;;;;;;6252599;22;20170;-83
2023/03/06 07:21:45;;;;;;;52.70;26.10;;;5.00;99.90;;;;;;6279165;22;20164;-84
2023/03/06 07:24:11;;;;;;;44.77;25.60;;;5.00;99.90;;;;;;6279458;22;20213;-83
2023/03/06 07:26:37;;;;;;;45.40;25.80;;;5.00;99.90;;;;;;6278648;22;20155;-83
2023/03/06 07:29:03;;;;;;;43.80;25.27;;;5.00;1.00;;;;;;6250599;22;20218;-83
2023/03/06 07:31:29;;;;;;;49.78;26.05;;;5.00;1.00;;;;;;6277611;22;20207;-83
2023/03/06 07:33:55;;;;;;;41.88;23.90;;;5.00;1.00;;;;;;6277128;22;20149;-83
2023/03/06 07:36:22;;;;;;;41.20;24.27;;;5.00;1.00;;;;;;6253554;22;20207;-84
2023/03/06 07:38:48;;;;;;;45.00;25.17;;;5.10;1.00;;;;;;6279072;22;20226;-83
2023/03/06 07:41:15;;;;;;;51.70;24.53;;;5.20;1.00;;;;;;6278129;22;20177;-83
2023/03/06 07:43:42;;;;;;;49.58;25.10;;;5.20;99.90;;;;;;6276606;22;20195;-83
2023/03/06 07:46:08;;;;;;;46.97;24.35;;;5.30;84.90;;;;;;6278555;22;20159;-83
2023/03/06 07:48:34;;;;;;;39.42;24.67;;;5.30;1.00;;;;;;6250782;22;20160;-84
2023/03/06 07:51:03;;;;;;;46.85;23.70;;;5.50;1.00;;;;;;6278090;22;20179;-84
2023/03/06 07:53:29;;;;;;;44.35;24.65;;;5.60;32.30;;;;;;6278648;22;20877;-84
2023/03/06 07:55:55;;;;;;;44.17;23.30;;;5.60;1.00;;;;;;6278349;22;20160;-84
2023/03/06 07:58:20;;;;;;;46.40;24.33;;;5.70;99.90;;;;;;6278305;22;20708;-83
2023/03/06 08:00:46;;;;;;;46.53;26.00;;;5.70;99.90;;;;;;6277662;22;20171;-83
2023/03/06 08:03:12;;;;;;;41.00;24.37;;;5.70;1.00;;;;;;6277957;22;20148;-83
2023/03/06 08:05:38;;;;;;;49.47;26.00;;;5.70;1.00;;;;;;6250776;22;20383;-83
2023/03/06 08:08:04;;;;;;;41.75;24.70;;;5.70;1.00;;;;;;6279044;22;20149;-84
2023/03/06 08:10:29;;;;;;;39.00;22.37;;;5.80;1.00;;;;;;6277883;22;20176;-84
2023/03/06 08:12:55;;;;;;;45.10;24.27;;;5.80;1.00;;;;;;6278284;22;20156;-83
2023/03/06 08:15:20;;;;;;;45.47;25.53;;;5.80;99.90;;;;;;6276545;22;20156;-82
2023/03/06 08:17:46;;;;;;;41.30;23.90;;;5.90;99.90;;;;;;6278091;22;20563;-83
2023/03/06 08:20:15;;;;;;;42.73;23.87;;;6.00;99.90;;;;;;6276337;22;20168;-84
2023/03/06 08:22:41;;;;;;;42.70;24.65;;;6.00;99.90;;;;;;6282753;22;20152;-82
2023/03/06 08:25:17;;;;;;;44.70;25.07;;;6.10;99.90;;;;;;6292207;22;20191;-81
2023/03/06 08:27:43;;;;;;;44.35;26.58;;;6.30;2.20;;;;;;6265000;22;20161;-82
2023/03/06 08:30:09;;;;;;;52.93;26.60;;;6.40;99.90;;;;;;6292603;22;20249;-81
2023/03/06 08:32:36;;;;;;;46.67;25.63;;;6.50;99.90;;;;;;6264192;22;20152;-81
2023/03/06 08:35:07;;;;;;;43.55;25.75;;;6.70;99.90;;;;;;6291887;22;20491;-82
2023/03/06 08:37:33;;;;;;;49.88;26.98;;;7.00;17.30;;;;;;6292358;22;20188;-82
2023/03/06 08:40:03;;;;;;;45.20;26.80;;;7.30;1.00;;;;;;6265910;22;20194;-83
2023/03/06 08:42:31;;;;;;;40.37;23.57;;;7.60;99.90;;;;;;6282675;22;20140;-83
2023/03/06 08:45:04;;;;;;;45.17;27.45;;;7.90;99.90;;;;;;6283349;22;20375;-84
2023/03/06 08:47:33;;;;;;;48.03;26.02;;;8.10;1.00;;;;;;6252921;22;20152;-85
2023/03/06 08:49:59;;;;;;;42.57;24.97;;;8.40;1.00;;;;;;6278612;22;20187;-84
2023/03/06 08:52:24;;;;;;;41.57;24.60;;;8.30;1.00;;;;;;6279505;22;20371;-84
2023/03/06 08:54:50;;;;;;;40.87;24.17;;;8.40;1.00;;;;;;6251624;22;20247;-84
2023/03/06 08:57:15;;;;;;;38.00;22.27;;;8.40;1.00;;;;;;6280247;22;20182;-84
2023/03/06 08:59:41;;;;;;;36.27;22.43;;;8.20;1.00;;;;;;6251256;22;20163;-83
2023/03/06 09:02:10;;;;;;;53.23;22.60;;;8.10;1.00;;;;;;6278639;22;20154;-83
2023/03/06 09:04:36;;;;;;;37.30;22.70;;;8.10;1.00;;;;;;6277903;22;20145;-84
2023/03/06 09:07:01;;;;;;;39.53;22.57;;;8.30;1.00;;;;;;6278248;22;20367;-84
2023/03/06 09:09:27;;;;;;;42.27;23.43;;;8.30;1.00;;;;;;6277814;22;20768;-84
2023/03/06 09:11:52;;;;;;;36.60;20.63;;;8.10;1.00;;;;;;6281420;22;20159;-82
2023/03/06 09:14:18;;;;;;;32.20;20.60;;;8.00;1.00;;;;;;6279497;22;20231;-82
2023/03/06 09:16:43;;;;;;;34.13;21.73;;;8.10;1.00;;;;;;6277686;22;20175;-82
2023/03/06 09:19:09;;;;;;;35.40;20.70;;;8.20;1.00;;;;;;6280532;22;20192;-82
2023/03/06 09:21:34;;;;;;;34.57;19.73;;;8.40;1.00;;;;;;6250945;22;20639;-83
2023/03/06 09:24:00;;;;;;;34.97;20.37;;;8.40;1.00;;;;;;6274441;22;20175;-82
2023/03/06 09:26:25;;;;;;;34.90;20.50;;;8.30;1.00;;;;;;6246667;22;20156;-82
2023/03/06 09:28:51;;;;;;;33.63;19.87;;;8.20;1.00;;;;;;6247821;22;20599;-83
2023/03/06 09:31:18;;;;;;;34.40;20.23;;;8.10;1.00;;;;;;6277378;22;20172;-82
2023/03/06 09:33:44;;;;;;;39.28;20.38;;;8.00;1.00;;;;;;6249801;22;20149;-83
2023/03/06 09:36:20;;;;;;;32.83;19.30;;;7.80;1.00;;;;;;6277891;22;20175;-83
2023/03/06 09:38:48;;;;;;;36.83;19.90;;;7.60;1.00;;;;;;6275647;22;20195;-83
2023/03/06 09:41:33;;;;;;;37.83;22.10;;;7.50;1.00;;;;;;6277080;22;20168;-83
2023/03/06 09:44:04;;;;;;;35.03;21.13;;;7.40;1.00;;;;;;6277925;22;20140;-82
2023/03/06 09:46:50;;;;;;;47.30;22.77;;;7.30;1.00;;;;;;6276240;22;20513;-82
2023/03/06 09:49:45;;;;;;;39.13;22.38;;;7.20;1.00;;;;;;6277466;22;20591;-83
2023/03/06 09:52:30;;;;;;;38.42;21.27;;;7.10;1.00;;;;;;6277769;22;20139;-83
2023/03/06 09:55:00;;;;;;;40.67;22.42;;;7.10;1.00;;;;;;6276998;22;20235;-83
2023/03/06 09:57:35;;;;;;;40.67;22.05;;;7.20;1.00;;;;;;6277930;22;20191;-82
2023/03/06 10:00:13;;;;;;;39.65;23.15;;;7.30;1.00;;;;;;6287021;22;20168;-82
2023/03/06 10:02:43;;;;;;;44.08;23.30;;;7.30;1.00;;;;;;6287406;22;20206;-82
2023/03/06 10:05:34;;;;;;;41.47;21.60;;;7.20;1.00;;;;;;6261693;22;20162;-82
2023/03/06 10:08:02;;;;;;;35.75;22.48;;;7.20;1.00;;;;;;6283252;22;20206;-82
2023/03/06 10:10:41;;;;;;;38.78;20.90;;;7.10;1.00;;;;;;6276462;22;20191;-82
2023/03/06 10:13:23;;;;;;;36.45;20.75;;;7.10;6.70;;;;;;6275697;22;20576;-82
2023/03/06 10:15:49;;;;;;;35.22;21.52;;;7.10;1.00;;;;;;6276540;22;20148;-82
2023/03/06 10:18:14;;;;;;;36.30;22.30;;;7.10;1.00;;;;;;6274748;22;20508;-83
2023/03/06 10:21:04;;;;;;;44.13;24.43;;;7.10;3.30;;;;;;6248352;22;20176;-83
2023/03/06 10:23:48;;;;;;;42.80;23.77;;;7.10;25.60;;;;;;6276938;22;20166;-82
2023/03/06 10:26:26;;;;;;;40.28;22.13;;;7.10;83.00;;;;;;6276668;22;20143;-80
2023/03/06 10:29:11;;;;;;;35.72;21.77;;;7.10;94.40;;;;;;6276113;22;20166;-82
2023/03/06 10:31:43;;;;;;;34.58;20.30;;;7.20;70.10;;;;;;6276534;22;20584;-82
2023/03/06 10:34:26;;;;;;;33.80;20.55;;;7.20;37.90;;;;;;6277083;22;20133;-84
2023/03/06 10:36:51;;;;;;;42.47;23.30;;;7.20;50.40;;;;;;6275720;22;20133;-83
2023/03/06 10:39:21;;;;;;;36.60;22.37;;;7.20;89.10;;;;;;6277130;22;20156;-83
2023/03/06 10:41:47;;;;;;;32.38;19.65;;;7.20;57.00;;;;;;6277066;22;20179;-84
2023/03/06 10:44:13;;;;;;;34.10;21.27;;;7.20;35.40;;;;;;6277103;22;20152;-84
2023/03/06 10:46:43;;;;;;;34.77;20.17;;;7.20;20.60;;;;;;6276789;22;20145;-83
2023/03/06 10:49:36;;;;;;;37.58;20.80;;;7.10;49.70;;;;;;6279232;22;20165;-83
2023/03/06 10:52:17;;;;;;;37.40;19.88;;;6.90;99.90;;;;;;6277289;22;20141;-82
2023/03/06 10:54:43;;;;;;;32.28;18.90;;;6.80;99.90;;;;;;6252711;22;20501;-82
2023/03/06 10:57:28;;;;;;;34.25;20.02;;;6.70;99.90;;;;;;6276969;22;20164;-80
2023/03/06 10:59:55;;;;;;;33.50;19.33;;;6.70;99.90;;;;;;6250867;22;20176;-81
2023/03/06 11:02:29;;;;;;;37.92;18.98;;;6.70;99.90;;;;;;6280084;22;20175;-81
2023/03/06 11:04:56;;;;;;;32.67;18.75;;;6.70;1.00;;;;;;6286202;22;20277;-80
2023/03/06 11:07:27;;;;;;;32.60;20.50;;;6.60;1.00;;;;;;6284376;22;20154;-81
2023/03/06 11:09:56;;;;;;;33.65;20.63;;;6.50;1.00;;;;;;6282832;22;20168;-81
2023/03/06 11:12:36;;;;;;;40.40;20.20;;;6.40;1.00;;;;;;6284939;22;20633;-81
2023/03/06 11:15:07;;;;;;;30.20;18.95;;;6.30;3.70;;;;;;6282646;22;20140;-82
2023/03/06 11:17:36;;;;;;;35.42;19.45;;;6.20;99.90;;;;;;6279609;22;20494;-82
2023/03/06 11:20:17;;;;;;;42.05;21.65;;;6.20;99.90;;;;;;6274107;22;20183;-83
2023/03/06 11:22:49;;;;;;;35.55;21.10;;;6.30;99.90;;;;;;6278090;22;20235;-83
2023/03/06 11:25:17;;;;;;;44.53;21.25;;;6.50;1.00;;;;;;6276829;22;20140;-83
2023/03/06 11:27:52;;;;;;;39.08;20.77;;;6.70;99.90;;;;;;6276647;22;20192;-84
2023/03/06 11:30:22;;;;;;;34.67;20.08;;;6.70;99.90;;;;;;6276094;22;20196;-83
2023/03/06 11:32:59;;;;;;;33.88;21.08;;;6.80;99.90;;;;;;6249493;22;20145;-83
2023/03/06 11:35:39;;;;;;;33.03;19.92;;;6.80;99.90;;;;;;6277620;22;20557;-82
2023/03/06 11:38:18;;;;;;;32.63;20.02;;;6.90;99.90;;;;;;6250403;22;20218;-83
2023/03/06 11:40:51;;;;;;;31.70;19.40;;;7.00;99.90;;;;;;6275406;22;20258;-82
2023/03/06 11:43:39;;;;;;;37.80;20.33;;;7.10;99.90;;;;;;6276501;22;20140;-82
2023/03/06 11:46:27;;;;;;;30.95;18.08;;;7.10;10.60;;;;;;6276989;22;20756;-81
2023/03/06 11:49:31;;;;;;;35.28;19.33;;;7.00;1.00;;;;;;6276564;22;20145;-82
2023/03/06 11:52:05;;;;;;;31.42;19.92;;;6.90;1.00;;;;;;6123348;23;20280;-82
2023/03/06 11:54:32;;;;;;;32.42;19.58;;;6.90;1.00;;;;;;6257226;22;20507;-81
2023/03/06 11:57:20;;;;;;;34.55;18.75;;;6.90;1.00;;;;;;6276537;22;20639;-82
2023/03/06 11:59:46;;;;;;;34.28;20.13;;;6.80;1.00;;;;;;6276728;22;20164;-81
2023/03/06 12:02:38;;;;;;;30.60;19.13;;;6.80;1.00;;;;;;6247468;22;20244;-82
2023/03/06 12:05:46;;;;;;;31.63;19.00;;;6.80;1.00;;;;;;6277659;22;20370;-82
2023/03/06 12:08:27;;;;;;;28.95;18.50;;;6.70;83.60;;;;;;6276102;22;20211;-82
2023/03/06 12:11:16;;;;;;;31.67;17.98;;;6.60;99.90;;;;;;6276562;22;20207;-82
2023/03/06 12:13:57;;;;;;;34.15;18.55;;;6.50;99.90;;;;;;6278456;22;20140;-83
2023/03/06 12:16:33;;;;;;;36.80;18.52;;;6.40;99.90;;;;;;6277830;22;20177;-82
2023/03/06 12:19:31;;;;;;;37.28;20.38;;;6.20;1.00;;;;;;6282757;22;20262;-82
2023/03/06 12:22:20;;;;;;;30.02;18.35;;;6.10;81.10;;;;;;6218005;22;20237;-82
2023/03/06 12:25:20;;;;;;;32.25;18.60;;;6.10;99.90;;;;;;6279060;22;20137;-81
2023/03/06 12:27:54;;;;;;;35.40;18.65;;;6.10;99.90;;;;;;6277620;22;20486;-82
2023/03/06 12:30:52;;;;;;;36.92;19.73;;;6.20;1.00;;;;;;6277077;22;20176;-82
2023/03/06 12:33:32;;;;;;;30.85;17.42;;;6.30;1.00;;;;;;6278592;22;20140;-82
2023/03/06 12:36:35;;;;;;;29.50;16.83;;;6.30;1.00;;;;;;6280052;22;20192;-83
2023/03/06 12:39:07;;;;;;;26.60;15.10;;;6.50;1.00;;;;;;6278684;22;20484;-83
2023/03/06 12:41:54;;;;;;;22.08;13.73;;;6.90;1.00;;;;;;6278683;22;20214;-83
2023/03/06 12:44:26;;;;;;;26.20;15.43;;;7.20;1.00;;;;;;6279895;22;20141;-83
2023/03/06 12:47:10;;;;;;;25.10;15.73;;;7.30;99.90;;;;;;6251987;22;20580;-82
2023/03/06 12:49:40;;;;;;;25.98;15.38;;;7.30;99.40;;;;;;6276323;22;20253;-82
2023/03/06 12:52:07;;;;;;;28.38;14.80;;;7.20;1.00;;;;;;6277483;22;20567;-82